sim
Sign-in with your pilot id or email,
or register
Callsign
Passwort

Schedule Details

Flight Number: DLH2789
Departure: Paphos International Airport (LCPH) at 12:25
Arrival: Munich Airport (EDDM) at 16:10
Route: Lufthansa Passenger Schedule. Enter filed route here before submitting Pirep.

Weather Information
Getting current METAR information for LCPH 282030Z 32005KT CAVOK 26/13 Q1015
Getting current METAR information for EDDM 282050Z 08003KT CAVOK 09/07 Q1015 NOSIG

Schedule Frequency

Route Map